sensor_id;sensor_type;location;lat;lon;timestamp;temperature;humidity
65046;DHT22;54657;52.022;5.534;2022-08-16T00:01:26;23.80;59.10
65046;DHT22;54657;52.022;5.534;2022-08-16T00:03:53;23.80;59.20
65046;DHT22;54657;52.022;5.534;2022-08-16T00:06:19;23.80;59.30
65046;DHT22;54657;52.022;5.534;2022-08-16T00:08:44;23.70;59.40
65046;DHT22;54657;52.022;5.534;2022-08-16T00:11:11;23.70;59.40
65046;DHT22;54657;52.022;5.534;2022-08-16T00:13:37;23.60;59.40
65046;DHT22;54657;52.022;5.534;2022-08-16T00:16:03;23.60;59.50
65046;DHT22;54657;52.022;5.534;2022-08-16T00:18:29;23.60;59.80
65046;DHT22;54657;52.022;5.534;2022-08-16T00:20:55;23.50;60.00
65046;DHT22;54657;52.022;5.534;2022-08-16T00:23:20;23.40;60.00
65046;DHT22;54657;52.022;5.534;2022-08-16T00:25:46;23.40;60.10
65046;DHT22;54657;52.022;5.534;2022-08-16T00:28:12;23.40;60.10
65046;DHT22;54657;52.022;5.534;2022-08-16T00:30:38;23.40;60.10
65046;DHT22;54657;52.022;5.534;2022-08-16T00:33:04;23.40;60.20
65046;DHT22;54657;52.022;5.534;2022-08-16T00:35:34;23.30;60.20
65046;DHT22;54657;52.022;5.534;2022-08-16T00:38:00;23.30;60.30
65046;DHT22;54657;52.022;5.534;2022-08-16T00:40:41;23.30;60.30
65046;DHT22;54657;52.022;5.534;2022-08-16T00:43:11;23.30;60.70
65046;DHT22;54657;52.022;5.534;2022-08-16T00:45:43;23.30;60.30
65046;DHT22;54657;52.022;5.534;2022-08-16T00:48:12;23.20;60.30
65046;DHT22;54657;52.022;5.534;2022-08-16T00:50:39;23.20;60.50
65046;DHT22;54657;52.022;5.534;2022-08-16T00:53:06;23.10;60.50
65046;DHT22;54657;52.022;5.534;2022-08-16T00:55:34;23.10;60.60
65046;DHT22;54657;52.022;5.534;2022-08-16T00:58:00;23.10;60.60
65046;DHT22;54657;52.022;5.534;2022-08-16T01:00:29;23.00;60.60
65046;DHT22;54657;52.022;5.534;2022-08-16T01:02:57;23.00;60.70
65046;DHT22;54657;52.022;5.534;2022-08-16T01:05:24;23.00;60.90
65046;DHT22;54657;52.022;5.534;2022-08-16T01:07:50;22.90;60.90
65046;DHT22;54657;52.022;5.534;2022-08-16T01:10:16;22.90;60.90
65046;DHT22;54657;52.022;5.534;2022-08-16T01:12:42;22.90;61.00
65046;DHT22;54657;52.022;5.534;2022-08-16T01:15:08;22.80;61.00
65046;DHT22;54657;52.022;5.534;2022-08-16T01:17:34;22.90;60.90
65046;DHT22;54657;52.022;5.534;2022-08-16T01:20:04;22.80;61.00
65046;DHT22;54657;52.022;5.534;2022-08-16T01:22:58;22.80;61.00
65046;DHT22;54657;52.022;5.534;2022-08-16T01:25:32;22.80;61.20
65046;DHT22;54657;52.022;5.534;2022-08-16T01:28:01;22.80;61.20
65046;DHT22;54657;52.022;5.534;2022-08-16T01:30:34;22.70;60.90
65046;DHT22;54657;52.022;5.534;2022-08-16T01:33:02;22.70;61.40
65046;DHT22;54657;52.022;5.534;2022-08-16T01:35:35;22.60;61.40
65046;DHT22;54657;52.022;5.534;2022-08-16T01:38:21;22.60;61.60
65046;DHT22;54657;52.022;5.534;2022-08-16T01:40:49;22.60;61.90
65046;DHT22;54657;52.022;5.534;2022-08-16T01:43:15;22.60;61.20
65046;DHT22;54657;52.022;5.534;2022-08-16T01:45:41;22.60;61.10
65046;DHT22;54657;52.022;5.534;2022-08-16T01:48:07;22.60;61.00
65046;DHT22;54657;52.022;5.534;2022-08-16T01:50:34;22.60;61.00
65046;DHT22;54657;52.022;5.534;2022-08-16T01:53:00;22.60;61.10
65046;DHT22;54657;52.022;5.534;2022-08-16T01:55:25;22.50;61.20
65046;DHT22;54657;52.022;5.534;2022-08-16T01:57:51;22.50;61.20
65046;DHT22;54657;52.022;5.534;2022-08-16T02:00:17;22.50;61.30
65046;DHT22;54657;52.022;5.534;2022-08-16T02:02:43;22.50;61.20
65046;DHT22;54657;52.022;5.534;2022-08-16T02:05:10;22.50;61.30
65046;DHT22;54657;52.022;5.534;2022-08-16T02:07:37;22.50;61.30
65046;DHT22;54657;52.022;5.534;2022-08-16T02:10:07;22.50;61.20
65046;DHT22;54657;52.022;5.534;2022-08-16T02:12:33;22.50;61.10
65046;DHT22;54657;52.022;5.534;2022-08-16T02:14:59;22.40;61.20
65046;DHT22;54657;52.022;5.534;2022-08-16T02:17:24;22.40;61.20
65046;DHT22;54657;52.022;5.534;2022-08-16T02:19:51;22.40;61.30
65046;DHT22;54657;52.022;5.534;2022-08-16T02:22:20;22.40;61.30
65046;DHT22;54657;52.022;5.534;2022-08-16T02:24:46;22.50;61.30
65046;DHT22;54657;52.022;5.534;2022-08-16T02:27:12;22.50;61.10
65046;DHT22;54657;52.022;5.534;2022-08-16T02:29:38;22.50;61.10
65046;DHT22;54657;52.022;5.534;2022-08-16T02:32:05;22.50;61.10
65046;DHT22;54657;52.022;5.534;2022-08-16T02:34:31;22.50;61.20
65046;DHT22;54657;52.022;5.534;2022-08-16T02:36:57;22.40;61.20
65046;DHT22;54657;52.022;5.534;2022-08-16T02:39:22;22.40;61.20
65046;DHT22;54657;52.022;5.534;2022-08-16T02:41:50;22.30;61.20
65046;DHT22;54657;52.022;5.534;2022-08-16T02:44:16;22.30;61.30
65046;DHT22;54657;52.022;5.534;2022-08-16T02:46:42;22.30;61.30
65046;DHT22;54657;52.022;5.534;2022-08-16T02:49:09;22.30;61.40
65046;DHT22;54657;52.022;5.534;2022-08-16T02:51:35;22.30;61.40
65046;DHT22;54657;52.022;5.534;2022-08-16T02:54:01;22.30;61.50
65046;DHT22;54657;52.022;5.534;2022-08-16T02:56:27;22.30;61.40
65046;DHT22;54657;52.022;5.534;2022-08-16T02:58:53;22.30;61.40
65046;DHT22;54657;52.022;5.534;2022-08-16T03:01:25;22.20;61.40
65046;DHT22;54657;52.022;5.534;2022-08-16T03:03:52;22.20;61.60
65046;DHT22;54657;52.022;5.534;2022-08-16T03:06:19;22.20;61.40
65046;DHT22;54657;52.022;5.534;2022-08-16T03:08:47;22.20;61.40
65046;DHT22;54657;52.022;5.534;2022-08-16T03:11:13;22.20;61.40
65046;DHT22;54657;52.022;5.534;2022-08-16T03:13:41;22.20;61.40
65046;DHT22;54657;52.022;5.534;2022-08-16T03:16:06;22.20;61.40
65046;DHT22;54657;52.022;5.534;2022-08-16T03:18:32;22.20;61.40
65046;DHT22;54657;52.022;5.534;2022-08-16T03:20:58;22.20;61.50
65046;DHT22;54657;52.022;5.534;2022-08-16T03:23:26;22.20;61.40
65046;DHT22;54657;52.022;5.534;2022-08-16T03:25:52;22.20;61.60
65046;DHT22;54657;52.022;5.534;2022-08-16T03:28:18;22.10;61.70
65046;DHT22;54657;52.022;5.534;2022-08-16T03:30:45;22.00;61.80
65046;DHT22;54657;52.022;5.534;2022-08-16T03:33:11;22.10;61.90
65046;DHT22;54657;52.022;5.534;2022-08-16T03:35:38;22.00;61.90
65046;DHT22;54657;52.022;5.534;2022-08-16T03:38:06;22.00;61.90
65046;DHT22;54657;52.022;5.534;2022-08-16T03:40:34;22.00;62.00
65046;DHT22;54657;52.022;5.534;2022-08-16T03:43:02;22.00;62.10
65046;DHT22;54657;52.022;5.534;2022-08-16T03:45:30;22.00;62.10
65046;DHT22;54657;52.022;5.534;2022-08-16T03:47:56;21.90;62.20
65046;DHT22;54657;52.022;5.534;2022-08-16T03:50:21;21.90;62.20
65046;DHT22;54657;52.022;5.534;2022-08-16T03:52:47;21.90;62.20
65046;DHT22;54657;52.022;5.534;2022-08-16T03:55:13;21.90;62.90
65046;DHT22;54657;52.022;5.534;2022-08-16T03:57:39;21.80;62.40
65046;DHT22;54657;52.022;5.534;2022-08-16T04:00:17;21.80;62.50
65046;DHT22;54657;52.022;5.534;2022-08-16T04:02:43;21.80;62.90
65046;DHT22;54657;52.022;5.534;2022-08-16T04:05:11;21.70;62.60
65046;DHT22;54657;52.022;5.534;2022-08-16T04:07:38;21.70;62.60
65046;DHT22;54657;52.022;5.534;2022-08-16T04:10:06;21.70;62.60
65046;DHT22;54657;52.022;5.534;2022-08-16T04:12:32;21.70;62.70
65046;DHT22;54657;52.022;5.534;2022-08-16T04:14:57;21.70;62.80
65046;DHT22;54657;52.022;5.534;2022-08-16T04:17:23;21.60;62.80
65046;DHT22;54657;52.022;5.534;2022-08-16T04:19:49;21.60;63.00
65046;DHT22;54657;52.022;5.534;2022-08-16T04:22:15;21.60;63.00
65046;DHT22;54657;52.022;5.534;2022-08-16T04:24:40;21.60;63.00
65046;DHT22;54657;52.022;5.534;2022-08-16T04:27:06;21.60;63.00
65046;DHT22;54657;52.022;5.534;2022-08-16T04:29:32;21.60;63.00
65046;DHT22;54657;52.022;5.534;2022-08-16T04:31:58;21.60;63.00
65046;DHT22;54657;52.022;5.534;2022-08-16T04:34:27;21.60;63.00
65046;DHT22;54657;52.022;5.534;2022-08-16T04:36:54;21.60;63.10
65046;DHT22;54657;52.022;5.534;2022-08-16T04:39:20;21.50;63.30
65046;DHT22;54657;52.022;5.534;2022-08-16T04:41:45;21.50;63.50
65046;DHT22;54657;52.022;5.534;2022-08-16T04:44:11;21.50;63.50
65046;DHT22;54657;52.022;5.534;2022-08-16T04:46:37;21.50;63.40
65046;DHT22;54657;52.022;5.534;2022-08-16T04:49:05;21.50;63.50
65046;DHT22;54657;52.022;5.534;2022-08-16T04:51:32;21.50;63.60
65046;DHT22;54657;52.022;5.534;2022-08-16T04:53:57;21.50;63.70
65046;DHT22;54657;52.022;5.534;2022-08-16T04:56:23;21.50;63.80
65046;DHT22;54657;52.022;5.534;2022-08-16T04:58:49;21.50;63.80
65046;DHT22;54657;52.022;5.534;2022-08-16T05:01:15;21.50;63.70
65046;DHT22;54657;52.022;5.534;2022-08-16T05:03:42;21.60;63.60
65046;DHT22;54657;52.022;5.534;2022-08-16T05:06:07;21.60;63.50
65046;DHT22;54657;52.022;5.534;2022-08-16T05:08:33;21.70;63.50
65046;DHT22;54657;52.022;5.534;2022-08-16T05:11:02;21.70;63.50
65046;DHT22;54657;52.022;5.534;2022-08-16T05:13:28;21.70;63.50
65046;DHT22;54657;52.022;5.534;2022-08-16T05:15:54;21.70;63.50
65046;DHT22;54657;52.022;5.534;2022-08-16T05:18:19;21.80;63.50
65046;DHT22;54657;52.022;5.534;2022-08-16T05:20:45;21.80;63.40
65046;DHT22;54657;52.022;5.534;2022-08-16T05:23:11;21.80;63.30
65046;DHT22;54657;52.022;5.534;2022-08-16T05:25:36;21.90;63.40
65046;DHT22;54657;52.022;5.534;2022-08-16T05:28:02;21.90;63.50
65046;DHT22;54657;52.022;5.534;2022-08-16T05:30:28;22.00;63.50
65046;DHT22;54657;52.022;5.534;2022-08-16T05:32:53;21.90;63.40
65046;DHT22;54657;52.022;5.534;2022-08-16T05:35:19;21.90;63.50
65046;DHT22;54657;52.022;5.534;2022-08-16T05:37:45;22.00;63.50
65046;DHT22;54657;52.022;5.534;2022-08-16T05:40:11;22.10;63.50
65046;DHT22;54657;52.022;5.534;2022-08-16T05:42:38;22.10;63.40
65046;DHT22;54657;52.022;5.534;2022-08-16T05:45:04;22.10;63.50
65046;DHT22;54657;52.022;5.534;2022-08-16T05:47:30;22.10;63.60
65046;DHT22;54657;52.022;5.534;2022-08-16T05:49:56;22.10;63.60
65046;DHT22;54657;52.022;5.534;2022-08-16T05:52:21;22.10;63.60
65046;DHT22;54657;52.022;5.534;2022-08-16T05:54:47;22.10;63.70
65046;DHT22;54657;52.022;5.534;2022-08-16T05:57:14;22.10;63.70
65046;DHT22;54657;52.022;5.534;2022-08-16T05:59:39;22.10;63.70
65046;DHT22;54657;52.022;5.534;2022-08-16T06:02:05;22.10;63.80
65046;DHT22;54657;52.022;5.534;2022-08-16T06:04:31;22.10;63.70
65046;DHT22;54657;52.022;5.534;2022-08-16T06:06:57;22.20;63.90
65046;DHT22;54657;52.022;5.534;2022-08-16T06:09:23;22.20;63.90
65046;DHT22;54657;52.022;5.534;2022-08-16T06:11:50;22.20;63.90
65046;DHT22;54657;52.022;5.534;2022-08-16T06:14:15;22.20;64.00
65046;DHT22;54657;52.022;5.534;2022-08-16T06:16:41;22.20;64.10
65046;DHT22;54657;52.022;5.534;2022-08-16T06:19:07;22.20;63.90
65046;DHT22;54657;52.022;5.534;2022-08-16T06:21:32;22.20;64.10
65046;DHT22;54657;52.022;5.534;2022-08-16T06:23:58;22.20;64.00
65046;DHT22;54657;52.022;5.534;2022-08-16T06:26:24;22.20;64.00
65046;DHT22;54657;52.022;5.534;2022-08-16T06:28:49;22.20;63.90
65046;DHT22;54657;52.022;5.534;2022-08-16T06:31:15;22.30;63.90
65046;DHT22;54657;52.022;5.534;2022-08-16T06:33:41;22.30;64.00
65046;DHT22;54657;52.022;5.534;2022-08-16T06:36:15;22.30;64.00
65046;DHT22;54657;52.022;5.534;2022-08-16T06:38:41;22.30;64.00
65046;DHT22;54657;52.022;5.534;2022-08-16T06:41:08;22.30;63.90
65046;DHT22;54657;52.022;5.534;2022-08-16T06:43:34;22.40;63.80
65046;DHT22;54657;52.022;5.534;2022-08-16T06:46:02;22.40;63.90
65046;DHT22;54657;52.022;5.534;2022-08-16T06:48:28;22.40;63.80
65046;DHT22;54657;52.022;5.534;2022-08-16T06:50:53;22.40;63.70
65046;DHT22;54657;52.022;5.534;2022-08-16T06:53:19;22.50;63.70
65046;DHT22;54657;52.022;5.534;2022-08-16T06:55:45;22.50;63.90
65046;DHT22;54657;52.022;5.534;2022-08-16T06:58:11;22.50;63.90
65046;DHT22;54657;52.022;5.534;2022-08-16T07:00:37;22.50;63.80
65046;DHT22;54657;52.022;5.534;2022-08-16T07:03:03;22.50;63.70
65046;DHT22;54657;52.022;5.534;2022-08-16T07:05:29;22.50;63.70
65046;DHT22;54657;52.022;5.534;2022-08-16T07:07:56;22.50;63.80
65046;DHT22;54657;52.022;5.534;2022-08-16T07:10:22;22.60;63.80
65046;DHT22;54657;52.022;5.534;2022-08-16T07:12:49;22.60;63.60
65046;DHT22;54657;52.022;5.534;2022-08-16T07:15:16;22.70;63.60
65046;DHT22;54657;52.022;5.534;2022-08-16T07:17:43;22.80;63.50
65046;DHT22;54657;52.022;5.534;2022-08-16T07:20:10;22.90;63.30
65046;DHT22;54657;52.022;5.534;2022-08-16T07:22:37;23.00;63.20
65046;DHT22;54657;52.022;5.534;2022-08-16T07:25:04;23.10;63.00
65046;DHT22;54657;52.022;5.534;2022-08-16T07:27:31;23.30;62.80
65046;DHT22;54657;52.022;5.534;2022-08-16T07:29:57;23.40;62.60
65046;DHT22;54657;52.022;5.534;2022-08-16T07:32:22;23.50;62.60
65046;DHT22;54657;52.022;5.534;2022-08-16T07:34:48;23.50;62.40
65046;DHT22;54657;52.022;5.534;2022-08-16T07:37:13;23.60;62.40
65046;DHT22;54657;52.022;5.534;2022-08-16T07:39:39;23.70;62.30
65046;DHT22;54657;52.022;5.534;2022-08-16T07:42:05;23.80;62.20
65046;DHT22;54657;52.022;5.534;2022-08-16T07:44:31;24.00;62.10
65046;DHT22;54657;52.022;5.534;2022-08-16T07:46:57;24.10;62.00
65046;DHT22;54657;52.022;5.534;2022-08-16T07:49:23;24.10;61.80
65046;DHT22;54657;52.022;5.534;2022-08-16T07:51:48;24.20;61.80
65046;DHT22;54657;52.022;5.534;2022-08-16T07:54:14;24.20;61.80
65046;DHT22;54657;52.022;5.534;2022-08-16T07:56:40;24.20;61.70
65046;DHT22;54657;52.022;5.534;2022-08-16T07:59:06;24.20;61.80
65046;DHT22;54657;52.022;5.534;2022-08-16T08:01:32;24.30;61.80
65046;DHT22;54657;52.022;5.534;2022-08-16T08:03:59;24.30;61.70
65046;DHT22;54657;52.022;5.534;2022-08-16T08:06:27;24.30;61.70
65046;DHT22;54657;52.022;5.534;2022-08-16T08:08:54;24.30;61.70
65046;DHT22;54657;52.022;5.534;2022-08-16T08:11:21;24.30;61.60
65046;DHT22;54657;52.022;5.534;2022-08-16T08:13:48;24.40;61.50
65046;DHT22;54657;52.022;5.534;2022-08-16T08:16:13;24.40;61.60
65046;DHT22;54657;52.022;5.534;2022-08-16T08:18:39;24.50;61.80
65046;DHT22;54657;52.022;5.534;2022-08-16T08:21:05;24.50;61.60
65046;DHT22;54657;52.022;5.534;2022-08-16T08:23:32;24.60;61.50
65046;DHT22;54657;52.022;5.534;2022-08-16T08:26:00;24.70;61.20
65046;DHT22;54657;52.022;5.534;2022-08-16T08:28:26;24.80;61.20
65046;DHT22;54657;52.022;5.534;2022-08-16T08:30:51;24.80;61.00
65046;DHT22;54657;52.022;5.534;2022-08-16T08:33:17;24.80;60.90
65046;DHT22;54657;52.022;5.534;2022-08-16T08:35:43;24.90;60.90
65046;DHT22;54657;52.022;5.534;2022-08-16T08:38:08;24.90;61.00
65046;DHT22;54657;52.022;5.534;2022-08-16T08:40:34;25.10;60.90
65046;DHT22;54657;52.022;5.534;2022-08-16T08:43:01;25.10;60.50
65046;DHT22;54657;52.022;5.534;2022-08-16T08:45:28;25.30;60.50
65046;DHT22;54657;52.022;5.534;2022-08-16T08:47:54;25.30;60.40
65046;DHT22;54657;52.022;5.534;2022-08-16T08:50:22;25.30;60.20
65046;DHT22;54657;52.022;5.534;2022-08-16T08:52:48;25.40;60.20
65046;DHT22;54657;52.022;5.534;2022-08-16T08:55:17;25.40;60.10
65046;DHT22;54657;52.022;5.534;2022-08-16T08:57:45;25.40;60.30
65046;DHT22;54657;52.022;5.534;2022-08-16T09:00:13;25.50;60.10
65046;DHT22;54657;52.022;5.534;2022-08-16T09:02:39;25.50;60.50
65046;DHT22;54657;52.022;5.534;2022-08-16T09:05:05;25.60;60.20
65046;DHT22;54657;52.022;5.534;2022-08-16T09:07:30;25.60;60.00
65046;DHT22;54657;52.022;5.534;2022-08-16T09:09:56;25.70;60.00
65046;DHT22;54657;52.022;5.534;2022-08-16T09:12:22;25.70;60.00
65046;DHT22;54657;52.022;5.534;2022-08-16T09:14:48;25.80;59.80
65046;DHT22;54657;52.022;5.534;2022-08-16T09:17:13;25.90;59.90
65046;DHT22;54657;52.022;5.534;2022-08-16T09:19:39;26.00;59.60
65046;DHT22;54657;52.022;5.534;2022-08-16T09:22:05;26.00;59.50
65046;DHT22;54657;52.022;5.534;2022-08-16T09:24:31;26.10;59.70
65046;DHT22;54657;52.022;5.534;2022-08-16T09:26:57;26.10;59.50
65046;DHT22;54657;52.022;5.534;2022-08-16T09:29:23;26.20;59.60
65046;DHT22;54657;52.022;5.534;2022-08-16T09:31:49;26.30;59.10
65046;DHT22;54657;52.022;5.534;2022-08-16T09:34:14;26.40;59.10
65046;DHT22;54657;52.022;5.534;2022-08-16T09:36:41;26.40;59.10
65046;DHT22;54657;52.022;5.534;2022-08-16T09:39:06;26.50;59.10
65046;DHT22;54657;52.022;5.534;2022-08-16T09:41:32;26.60;58.90
65046;DHT22;54657;52.022;5.534;2022-08-16T09:43:58;26.70;58.90
65046;DHT22;54657;52.022;5.534;2022-08-16T09:46:24;26.80;58.40
65046;DHT22;54657;52.022;5.534;2022-08-16T09:48:50;26.80;58.00
65046;DHT22;54657;52.022;5.534;2022-08-16T09:51:17;26.80;57.80
65046;DHT22;54657;52.022;5.534;2022-08-16T09:53:43;26.90;58.00
65046;DHT22;54657;52.022;5.534;2022-08-16T09:56:25;26.80;57.70
65046;DHT22;54657;52.022;5.534;2022-08-16T09:58:52;26.90;57.70
65046;DHT22;54657;52.022;5.534;2022-08-16T10:01:18;26.90;58.20
65046;DHT22;54657;52.022;5.534;2022-08-16T10:03:44;27.00;58.00
65046;DHT22;54657;52.022;5.534;2022-08-16T10:06:09;27.00;57.80
65046;DHT22;54657;52.022;5.534;2022-08-16T10:08:35;27.10;57.80
65046;DHT22;54657;52.022;5.534;2022-08-16T10:11:00;27.10;57.70
65046;DHT22;54657;52.022;5.534;2022-08-16T10:13:44;27.10;57.60
65046;DHT22;54657;52.022;5.534;2022-08-16T10:16:10;27.10;57.50
65046;DHT22;54657;52.022;5.534;2022-08-16T10:18:39;27.10;57.50
65046;DHT22;54657;52.022;5.534;2022-08-16T10:21:05;27.20;57.50
65046;DHT22;54657;52.022;5.534;2022-08-16T10:23:31;27.20;57.40
65046;DHT22;54657;52.022;5.534;2022-08-16T10:25:57;27.30;57.10
65046;DHT22;54657;52.022;5.534;2022-08-16T10:28:24;27.30;57.10
65046;DHT22;54657;52.022;5.534;2022-08-16T10:30:50;27.40;57.00
65046;DHT22;54657;52.022;5.534;2022-08-16T10:33:16;27.40;56.80
65046;DHT22;54657;52.022;5.534;2022-08-16T10:35:43;27.50;57.10
65046;DHT22;54657;52.022;5.534;2022-08-16T10:38:09;27.60;56.90
65046;DHT22;54657;52.022;5.534;2022-08-16T10:40:37;27.60;56.80
65046;DHT22;54657;52.022;5.534;2022-08-16T10:43:03;27.60;56.50
65046;DHT22;54657;52.022;5.534;2022-08-16T10:45:29;27.70;56.30
65046;DHT22;54657;52.022;5.534;2022-08-16T10:47:55;27.60;56.50
65046;DHT22;54657;52.022;5.534;2022-08-16T10:50:21;27.60;56.50
65046;DHT22;54657;52.022;5.534;2022-08-16T10:52:47;27.80;56.40
65046;DHT22;54657;52.022;5.534;2022-08-16T10:55:13;27.90;56.40
65046;DHT22;54657;52.022;5.534;2022-08-16T10:57:39;28.00;56.20
65046;DHT22;54657;52.022;5.534;2022-08-16T11:00:10;28.00;55.90
65046;DHT22;54657;52.022;5.534;2022-08-16T11:02:37;28.00;55.80
65046;DHT22;54657;52.022;5.534;2022-08-16T11:05:05;28.10;56.00
65046;DHT22;54657;52.022;5.534;2022-08-16T11:07:32;28.10;55.70
65046;DHT22;54657;52.022;5.534;2022-08-16T11:09:57;28.10;55.90
65046;DHT22;54657;52.022;5.534;2022-08-16T11:12:26;28.10;55.60
65046;DHT22;54657;52.022;5.534;2022-08-16T11:14:52;28.10;55.70
65046;DHT22;54657;52.022;5.534;2022-08-16T11:17:17;28.00;55.80
65046;DHT22;54657;52.022;5.534;2022-08-16T11:19:43;28.10;56.40
65046;DHT22;54657;52.022;5.534;2022-08-16T11:22:09;28.00;55.70
65046;DHT22;54657;52.022;5.534;2022-08-16T11:24:34;28.10;55.70
65046;DHT22;54657;52.022;5.534;2022-08-16T11:27:05;28.10;55.60
65046;DHT22;54657;52.022;5.534;2022-08-16T11:29:32;28.20;55.60
65046;DHT22;54657;52.022;5.534;2022-08-16T11:31:59;28.20;55.50
65046;DHT22;54657;52.022;5.534;2022-08-16T11:34:24;28.30;55.30
65046;DHT22;54657;52.022;5.534;2022-08-16T11:36:50;28.30;55.30
65046;DHT22;54657;52.022;5.534;2022-08-16T11:39:16;28.40;55.30
65046;DHT22;54657;52.022;5.534;2022-08-16T11:41:42;28.50;55.00
65046;DHT22;54657;52.022;5.534;2022-08-16T11:44:08;28.60;54.80
65046;DHT22;54657;52.022;5.534;2022-08-16T11:46:36;28.70;54.80
65046;DHT22;54657;52.022;5.534;2022-08-16T11:49:02;28.70;54.60
65046;DHT22;54657;52.022;5.534;2022-08-16T11:51:29;28.70;54.90
65046;DHT22;54657;52.022;5.534;2022-08-16T11:53:54;28.70;54.70
65046;DHT22;54657;52.022;5.534;2022-08-16T11:56:20;28.80;54.70
65046;DHT22;54657;52.022;5.534;2022-08-16T11:58:46;28.80;54.60
65046;DHT22;54657;52.022;5.534;2022-08-16T12:01:11;28.80;54.20
65046;DHT22;54657;52.022;5.534;2022-08-16T12:03:39;28.80;54.10
65046;DHT22;54657;52.022;5.534;2022-08-16T12:06:16;28.70;54.20
65046;DHT22;54657;52.022;5.534;2022-08-16T12:08:45;28.70;53.70
65046;DHT22;54657;52.022;5.534;2022-08-16T12:11:11;28.70;53.60
65046;DHT22;54657;52.022;5.534;2022-08-16T12:13:38;28.70;53.40
65046;DHT22;54657;52.022;5.534;2022-08-16T12:16:04;28.80;53.40
65046;DHT22;54657;52.022;5.534;2022-08-16T12:18:30;28.80;53.20
65046;DHT22;54657;52.022;5.534;2022-08-16T12:20:56;28.90;53.00
65046;DHT22;54657;52.022;5.534;2022-08-16T12:23:22;29.00;52.70
65046;DHT22;54657;52.022;5.534;2022-08-16T12:25:47;29.10;52.40
65046;DHT22;54657;52.022;5.534;2022-08-16T12:28:13;29.10;52.10
65046;DHT22;54657;52.022;5.534;2022-08-16T12:30:42;29.20;51.50
65046;DHT22;54657;52.022;5.534;2022-08-16T12:33:10;29.30;51.40
65046;DHT22;54657;52.022;5.534;2022-08-16T12:35:38;29.30;51.50
65046;DHT22;54657;52.022;5.534;2022-08-16T12:38:04;29.20;51.20
65046;DHT22;54657;52.022;5.534;2022-08-16T12:40:34;29.20;51.60
65046;DHT22;54657;52.022;5.534;2022-08-16T12:43:01;29.10;50.90
65046;DHT22;54657;52.022;5.534;2022-08-16T12:45:35;29.00;50.90
65046;DHT22;54657;52.022;5.534;2022-08-16T12:48:02;29.00;49.50
65046;DHT22;54657;52.022;5.534;2022-08-16T12:50:46;28.90;51.10
65046;DHT22;54657;52.022;5.534;2022-08-16T12:53:12;28.80;51.40
65046;DHT22;54657;52.022;5.534;2022-08-16T12:55:39;28.80;51.40
65046;DHT22;54657;52.022;5.534;2022-08-16T12:58:05;28.70;51.20
65046;DHT22;54657;52.022;5.534;2022-08-16T13:00:32;28.70;51.20
65046;DHT22;54657;52.022;5.534;2022-08-16T13:02:59;28.70;51.30
65046;DHT22;54657;52.022;5.534;2022-08-16T13:05:26;28.60;51.20
65046;DHT22;54657;52.022;5.534;2022-08-16T13:07:52;28.60;51.30
65046;DHT22;54657;52.022;5.534;2022-08-16T13:10:18;28.60;51.60
65046;DHT22;54657;52.022;5.534;2022-08-16T13:12:48;28.60;51.80
65046;DHT22;54657;52.022;5.534;2022-08-16T13:15:22;28.60;51.30
65046;DHT22;54657;52.022;5.534;2022-08-16T13:17:48;28.60;51.30
65046;DHT22;54657;52.022;5.534;2022-08-16T13:20:17;28.60;51.50
65046;DHT22;54657;52.022;5.534;2022-08-16T13:22:53;28.60;51.30
65046;DHT22;54657;52.022;5.534;2022-08-16T13:25:24;28.70;51.80
65046;DHT22;54657;52.022;5.534;2022-08-16T13:27:51;28.70;51.60
65046;DHT22;54657;52.022;5.534;2022-08-16T13:30:16;28.70;51.70
65046;DHT22;54657;52.022;5.534;2022-08-16T13:32:42;28.70;51.80
65046;DHT22;54657;52.022;5.534;2022-08-16T13:35:11;28.80;51.80
65046;DHT22;54657;52.022;5.534;2022-08-16T13:37:37;28.80;51.90
65046;DHT22;54657;52.022;5.534;2022-08-16T13:40:04;28.70;51.80
65046;DHT22;54657;52.022;5.534;2022-08-16T13:42:30;28.60;51.70
65046;DHT22;54657;52.022;5.534;2022-08-16T13:44:56;28.70;51.80
65046;DHT22;54657;52.022;5.534;2022-08-16T13:47:23;28.70;51.70
65046;DHT22;54657;52.022;5.534;2022-08-16T13:49:48;28.70;51.50
65046;DHT22;54657;52.022;5.534;2022-08-16T13:52:15;28.70;51.40
65046;DHT22;54657;52.022;5.534;2022-08-16T13:54:41;28.70;51.30
65046;DHT22;54657;52.022;5.534;2022-08-16T13:57:08;28.80;51.20
65046;DHT22;54657;52.022;5.534;2022-08-16T13:59:34;28.80;51.20
65046;DHT22;54657;52.022;5.534;2022-08-16T14:01:59;29.00;51.10
65046;DHT22;54657;52.022;5.534;2022-08-16T14:04:29;29.00;51.10
65046;DHT22;54657;52.022;5.534;2022-08-16T14:06:59;28.90;51.00
65046;DHT22;54657;52.022;5.534;2022-08-16T14:09:26;28.90;50.60
65046;DHT22;54657;52.022;5.534;2022-08-16T14:11:52;28.90;51.00
65046;DHT22;54657;52.022;5.534;2022-08-16T14:14:18;28.90;50.90
65046;DHT22;54657;52.022;5.534;2022-08-16T14:16:44;28.90;51.00
65046;DHT22;54657;52.022;5.534;2022-08-16T14:19:09;28.90;51.00
65046;DHT22;54657;52.022;5.534;2022-08-16T14:21:36;28.90;51.20
65046;DHT22;54657;52.022;5.534;2022-08-16T14:24:04;28.90;51.20
65046;DHT22;54657;52.022;5.534;2022-08-16T14:26:30;29.00;51.00
65046;DHT22;54657;52.022;5.534;2022-08-16T14:28:56;29.00;50.90
65046;DHT22;54657;52.022;5.534;2022-08-16T14:31:21;29.10;51.20
65046;DHT22;54657;52.022;5.534;2022-08-16T14:33:47;29.10;51.00
65046;DHT22;54657;52.022;5.534;2022-08-16T14:36:12;29.20;51.00
65046;DHT22;54657;52.022;5.534;2022-08-16T14:38:39;29.10;50.90
65046;DHT22;54657;52.022;5.534;2022-08-16T14:41:06;29.10;51.30
65046;DHT22;54657;52.022;5.534;2022-08-16T14:43:31;29.10;51.30
65046;DHT22;54657;52.022;5.534;2022-08-16T14:45:57;29.10;51.40
65046;DHT22;54657;52.022;5.534;2022-08-16T14:48:22;29.10;51.20
65046;DHT22;54657;52.022;5.534;2022-08-16T14:50:48;29.10;50.90
65046;DHT22;54657;52.022;5.534;2022-08-16T14:53:14;29.10;50.30
65046;DHT22;54657;52.022;5.534;2022-08-16T14:55:39;29.10;50.40
65046;DHT22;54657;52.022;5.534;2022-08-16T14:58:05;29.10;50.20
65046;DHT22;54657;52.022;5.534;2022-08-16T15:00:31;29.10;50.30
65046;DHT22;54657;52.022;5.534;2022-08-16T15:02:59;29.00;50.30
65046;DHT22;54657;52.022;5.534;2022-08-16T15:05:26;29.00;50.40
65046;DHT22;54657;52.022;5.534;2022-08-16T15:07:53;29.00;50.20
65046;DHT22;54657;52.022;5.534;2022-08-16T15:10:20;28.90;50.20
65046;DHT22;54657;52.022;5.534;2022-08-16T15:12:48;28.90;49.80
65046;DHT22;54657;52.022;5.534;2022-08-16T15:15:16;28.90;49.40
65046;DHT22;54657;52.022;5.534;2022-08-16T15:17:45;28.90;49.10
65046;DHT22;54657;52.022;5.534;2022-08-16T15:20:11;28.80;49.30
65046;DHT22;54657;52.022;5.534;2022-08-16T15:22:43;28.70;49.60
65046;DHT22;54657;52.022;5.534;2022-08-16T15:25:17;28.70;49.60
65046;DHT22;54657;52.022;5.534;2022-08-16T15:27:44;28.80;49.70